createdAt,value
2024-01-15T00:02:07.000Z,11.55
2024-01-15T00:04:40.177Z,13.80
2024-01-15T00:07:13.481Z,11.65
2024-01-15T00:09:46.600Z,14.27
2024-01-15T00:12:19.822Z,12.82
2024-01-15T00:14:53.093Z,9.25
2024-01-15T00:17:27.284Z,12.93
2024-01-15T00:20:00.281Z,10.60
2024-01-15T00:22:34.374Z,16.42
2024-01-15T00:25:08.083Z,7.80
2024-01-15T00:27:41.027Z,14.48
2024-01-15T00:30:15.044Z,11.40
2024-01-15T00:32:49.285Z,12.40
2024-01-15T00:35:22.207Z,6.57
2024-01-15T00:37:55.493Z,8.80
2024-01-15T00:40:28.334Z,19.70
2024-01-15T00:43:01.312Z,11.45
2024-01-15T00:45:34.289Z,20.02
2024-01-15T00:48:09.163Z,9.85
2024-01-15T00:50:42.075Z,22.42
2024-01-15T00:53:15.363Z,10.30
2024-01-15T00:55:48.484Z,13.38
2024-01-15T00:58:21.875Z,15.18
2024-01-15T01:00:55.387Z,18.17
2024-01-15T01:03:29.852Z,14.88
2024-01-15T01:06:03.144Z,13.43
2024-01-15T01:08:36.613Z,12.63
2024-01-15T01:11:09.819Z,9.98
2024-01-15T01:13:44.782Z,13.30
2024-01-15T01:16:18.087Z,14.02
2024-01-15T01:18:53.764Z,17.70
2024-01-15T01:21:26.924Z,20.67
2024-01-15T01:23:59.916Z,16.25
2024-01-15T01:26:32.892Z,10.82
2024-01-15T01:29:05.717Z,15.05
2024-01-15T01:31:38.737Z,16.50
2024-01-15T01:34:13.481Z,17.40
2024-01-15T01:36:46.461Z,10.85
2024-01-15T01:39:19.679Z,14.15
2024-01-15T01:41:52.875Z,15.20
2024-01-15T01:44:25.924Z,20.17
2024-01-15T01:46:59.557Z,9.10
2024-01-15T01:49:37.020Z,15.00
2024-01-15T01:52:12.947Z,13.52
2024-01-15T01:54:46.000Z,8.13
2024-01-15T01:57:20.496Z,14.50
2024-01-15T01:59:55.986Z,11.90
2024-01-15T02:02:29.248Z,13.60
2024-01-15T02:05:04.204Z,14.90
2024-01-15T02:07:37.819Z,9.68
2024-01-15T02:10:11.582Z,10.55
2024-01-15T02:12:45.390Z,8.60
2024-01-15T02:15:18.963Z,12.18
2024-01-15T02:18:02.912Z,10.15
2024-01-15T02:20:37.843Z,11.30
2024-01-15T02:23:13.602Z,6.63
2024-01-15T02:25:49.229Z,8.43
2024-01-15T02:28:22.659Z,10.82
2024-01-15T02:30:55.602Z,13.18
2024-01-15T02:33:28.751Z,15.98
2024-01-15T02:36:01.628Z,13.57
2024-01-15T02:38:36.105Z,15.75
2024-01-15T02:41:08.987Z,7.55
2024-01-15T02:43:42.131Z,13.23
2024-01-15T02:46:15.726Z,11.48
2024-01-15T02:48:48.591Z,11.52
2024-01-15T02:51:21.795Z,15.40
2024-01-15T02:53:55.983Z,12.80
2024-01-15T02:56:28.844Z,8.85
2024-01-15T02:59:01.917Z,12.35
2024-01-15T03:01:34.884Z,18.25
2024-01-15T03:04:07.850Z,17.15
2024-01-15T03:06:40.865Z,12.15
2024-01-15T03:09:15.299Z,15.38
2024-01-15T03:11:48.111Z,13.05
2024-01-15T03:14:25.632Z,15.70
2024-01-15T03:16:58.645Z,12.88
2024-01-15T03:19:31.683Z,10.80
2024-01-15T03:22:04.825Z,11.52
2024-01-15T03:24:39.329Z,19.08
2024-01-15T03:27:12.275Z,19.05
2024-01-15T03:29:45.247Z,13.82
2024-01-15T03:32:20.712Z,12.07
2024-01-15T03:34:53.783Z,15.23
2024-01-15T03:37:26.745Z,16.10
2024-01-15T03:40:01.231Z,16.67
2024-01-15T03:42:34.289Z,15.57
2024-01-15T03:45:08.734Z,13.35
2024-01-15T03:47:41.599Z,14.18
2024-01-15T03:50:14.651Z,16.80
2024-01-15T03:52:47.747Z,13.82
2024-01-15T03:55:22.145Z,12.90
2024-01-15T03:57:55.030Z,10.82
2024-01-15T04:00:28.252Z,12.35
2024-01-15T04:03:01.278Z,15.43
2024-01-15T04:05:34.229Z,22.83
2024-01-15T04:08:07.490Z,17.23
2024-01-15T04:10:41.795Z,20.55
2024-01-15T04:13:14.684Z,21.08
2024-01-15T04:15:47.725Z,17.80
2024-01-15T04:18:20.770Z,28.13
2024-01-15T04:20:53.696Z,28.05
2024-01-15T04:23:26.586Z,14.02
2024-01-15T04:26:00.834Z,19.15
2024-01-15T04:28:33.643Z,23.92
2024-01-15T04:31:06.586Z,16.88
2024-01-15T04:33:39.939Z,14.25
2024-01-15T04:36:12.947Z,14.88
2024-01-15T04:38:45.933Z,17.73
2024-01-15T04:41:21.323Z,16.55
2024-01-15T04:43:54.132Z,16.17
2024-01-15T04:46:27.032Z,26.58
2024-01-15T04:49:00.329Z,18.92
2024-01-15T04:51:34.284Z,20.55
2024-01-15T04:54:08.506Z,22.15
2024-01-15T04:56:42.677Z,16.27
2024-01-15T04:59:16.409Z,21.98
2024-01-15T05:01:50.269Z,18.38
2024-01-15T05:04:23.350Z,20.33
2024-01-15T05:06:56.324Z,22.52
2024-01-15T05:09:33.003Z,25.30
2024-01-15T05:12:08.450Z,22.63
2024-01-15T05:14:41.318Z,25.48
2024-01-15T05:17:14.147Z,18.10
2024-01-15T05:19:47.178Z,24.48
2024-01-15T05:22:20.258Z,36.72
2024-01-15T05:24:53.380Z,23.83
2024-01-15T05:27:27.809Z,36.83
2024-01-15T05:30:00.754Z,21.17
2024-01-15T05:32:34.923Z,25.77
2024-01-15T05:35:08.811Z,18.17
2024-01-15T05:37:46.054Z,23.40
2024-01-15T05:40:19.379Z,29.95
2024-01-15T05:42:53.649Z,18.70
2024-01-15T05:45:28.593Z,25.35
2024-01-15T05:48:01.514Z,22.85
2024-01-15T05:50:34.565Z,27.13
2024-01-15T05:53:09.822Z,22.92
2024-01-15T05:55:42.821Z,22.15
2024-01-15T05:58:17.084Z,16.63
2024-01-15T06:00:51.402Z,18.50
2024-01-15T06:03:24.480Z,14.02
2024-01-15T06:05:57.476Z,21.65
2024-01-15T06:08:30.536Z,14.38
2024-01-15T06:11:04.311Z,24.40
2024-01-15T06:13:38.578Z,15.07
2024-01-15T06:16:18.025Z,17.17
2024-01-15T06:18:51.409Z,14.68
2024-01-15T06:21:24.289Z,17.08
2024-01-15T06:23:57.697Z,15.18
2024-01-15T06:26:30.718Z,16.63
2024-01-15T06:29:05.121Z,20.45
2024-01-15T06:31:38.028Z,24.17
2024-01-15T06:34:11.041Z,16.15
2024-01-15T06:36:45.719Z,25.25
2024-01-15T06:39:18.488Z,20.50
2024-01-15T06:41:51.296Z,35.42
2024-01-15T06:44:25.604Z,17.60
2024-01-15T06:47:03.454Z,16.95
2024-01-15T06:49:36.692Z,21.30
2024-01-15T06:52:09.613Z,22.30
2024-01-15T06:54:42.475Z,27.17
2024-01-15T06:57:15.475Z,20.95
2024-01-15T06:59:49.750Z,20.83
2024-01-15T07:02:22.666Z,13.63
2024-01-15T07:04:55.581Z,25.65
2024-01-15T07:07:31.560Z,21.23
2024-01-15T07:10:04.828Z,24.48
2024-01-15T07:12:37.676Z,18.42
2024-01-15T07:15:12.448Z,12.70
2024-01-15T07:17:45.646Z,16.40
2024-01-15T07:20:20.578Z,17.15
2024-01-15T07:22:53.844Z,21.52
2024-01-15T07:25:27.362Z,18.00
2024-01-15T07:28:00.414Z,14.50
2024-01-15T07:30:35.529Z,13.18
2024-01-15T07:33:08.582Z,13.35
2024-01-15T07:35:41.448Z,14.02
2024-01-15T07:38:14.305Z,15.50
2024-01-15T07:40:50.266Z,8.30
2024-01-15T07:43:24.015Z,13.07
2024-01-15T07:45:58.727Z,11.65
2024-01-15T07:48:31.816Z,16.05
2024-01-15T07:51:05.358Z,13.63
2024-01-15T07:53:38.465Z,15.75
2024-01-15T07:56:13.910Z,8.27
2024-01-15T07:58:47.184Z,9.98
2024-01-15T08:01:21.732Z,14.18
2024-01-15T08:03:56.470Z,11.45
2024-01-15T08:06:30.071Z,10.25
2024-01-15T08:09:03.780Z,11.40
2024-01-15T08:11:36.793Z,11.68
2024-01-15T08:14:10.025Z,9.25
2024-01-15T08:16:44.960Z,10.43
2024-01-15T08:19:18.036Z,8.77
2024-01-15T08:21:51.021Z,12.07
2024-01-15T08:24:25.269Z,16.92
2024-01-15T08:26:58.437Z,10.00
2024-01-15T08:29:34.117Z,9.32
2024-01-15T08:32:08.473Z,8.68
2024-01-15T08:34:41.466Z,9.15
2024-01-15T08:37:16.592Z,8.85
2024-01-15T08:39:52.194Z,15.57
2024-01-15T08:42:25.851Z,17.55
2024-01-15T08:44:58.733Z,9.90
2024-01-15T08:47:33.141Z,12.43
2024-01-15T08:50:07.287Z,21.55
2024-01-15T08:52:40.362Z,16.00
2024-01-15T08:55:14.177Z,10.82
2024-01-15T08:57:47.847Z,9.75
2024-01-15T09:00:21.451Z,12.57
2024-01-15T09:02:58.156Z,9.68
2024-01-15T09:05:31.335Z,10.40
2024-01-15T09:08:05.033Z,13.55
2024-01-15T09:10:38.304Z,14.45
2024-01-15T09:13:11.215Z,6.63
2024-01-15T09:15:44.951Z,9.35
2024-01-15T09:18:19.753Z,14.73
2024-01-15T09:20:52.615Z,15.73
2024-01-15T09:23:28.806Z,15.90
2024-01-15T09:26:02.559Z,12.63
2024-01-15T09:28:35.486Z,9.50
2024-01-15T09:31:08.894Z,9.65
2024-01-15T09:33:43.232Z,7.88
2024-01-15T09:36:16.268Z,9.82
2024-01-15T09:38:49.608Z,10.95
2024-01-15T09:41:22.574Z,11.48
2024-01-15T09:43:55.544Z,12.35
2024-01-15T09:46:28.427Z,7.22
2024-01-15T09:49:03.093Z,10.40
2024-01-15T09:51:36.053Z,12.93
2024-01-15T09:54:10.774Z,7.18
2024-01-15T09:56:43.658Z,8.75
2024-01-15T09:59:18.448Z,4.45
2024-01-15T10:01:52.672Z,6.53
2024-01-15T10:04:27.279Z,5.13
2024-01-15T10:07:03.177Z,14.43
2024-01-15T10:09:37.931Z,19.30
2024-01-15T10:12:12.508Z,9.00
2024-01-15T10:14:45.833Z,16.13
2024-01-15T10:17:19.507Z,14.98
2024-01-15T10:19:53.960Z,12.27
2024-01-15T10:22:28.238Z,11.02
2024-01-15T10:25:01.384Z,5.75
2024-01-15T10:27:34.863Z,9.65
2024-01-15T10:30:09.107Z,14.52
2024-01-15T10:32:44.397Z,7.30
2024-01-15T10:35:18.843Z,7.50
2024-01-15T10:37:51.997Z,13.88
2024-01-15T10:40:25.231Z,14.75
2024-01-15T10:43:00.320Z,11.82
2024-01-15T10:45:34.754Z,5.85
2024-01-15T10:48:10.936Z,13.27
2024-01-15T10:50:46.151Z,9.20
2024-01-15T10:53:19.737Z,6.03
2024-01-15T10:55:53.793Z,5.15
2024-01-15T10:58:33.353Z,6.30
2024-01-15T11:01:07.563Z,6.00
2024-01-15T11:03:41.090Z,7.18
2024-01-15T11:06:21.373Z,9.75
2024-01-15T11:08:56.727Z,7.78
2024-01-15T11:11:29.658Z,8.45
2024-01-15T11:14:02.351Z,3.92
2024-01-15T11:16:57.223Z,5.55
2024-01-15T11:19:38.408Z,3.88
2024-01-15T11:22:33.671Z,9.65
2024-01-15T11:25:16.520Z,5.47
2024-01-15T11:27:53.866Z,4.40
2024-01-15T11:30:28.663Z,3.85
2024-01-15T11:33:02.865Z,5.85
2024-01-15T11:35:51.756Z,3.03
2024-01-15T11:38:31.884Z,3.05
2024-01-15T11:41:16.472Z,4.18
2024-01-15T11:43:49.475Z,5.95
2024-01-15T11:46:23.675Z,6.18
2024-01-15T11:49:05.768Z,5.70
2024-01-15T11:51:38.120Z,9.85
2024-01-15T11:54:14.675Z,4.03
2024-01-15T11:56:47.686Z,5.68
2024-01-15T11:59:20.870Z,6.20
2024-01-15T12:01:55.264Z,5.82
2024-01-15T12:04:28.187Z,13.52
2024-01-15T12:07:01.248Z,6.50
2024-01-15T12:09:35.812Z,6.53
2024-01-15T12:12:13.596Z,9.02
2024-01-15T12:14:46.776Z,7.63
2024-01-15T12:17:20.045Z,8.80
2024-01-15T12:19:52.992Z,9.93
2024-01-15T12:22:25.849Z,7.72
2024-01-15T12:25:00.126Z,7.10
2024-01-15T12:27:33.759Z,5.47
2024-01-15T12:30:08.604Z,7.18
2024-01-15T12:32:42.327Z,10.35
2024-01-15T12:35:16.502Z,7.47
2024-01-15T12:37:52.572Z,10.80
2024-01-15T12:40:27.365Z,8.38
2024-01-15T12:43:00.374Z,10.02
2024-01-15T12:45:33.686Z,8.45
2024-01-15T12:48:07.615Z,6.82
2024-01-15T12:50:40.735Z,6.25
2024-01-15T12:53:13.824Z,5.22
2024-01-15T12:55:48.500Z,2.40
2024-01-15T12:58:21.645Z,7.20
2024-01-15T13:00:54.898Z,6.93
2024-01-15T13:03:27.861Z,3.80
2024-01-15T13:06:02.067Z,4.30
2024-01-15T13:08:34.951Z,2.40
2024-01-15T13:11:09.454Z,5.72
2024-01-15T13:13:42.388Z,2.15
2024-01-15T13:16:15.751Z,5.13
2024-01-15T13:18:51.125Z,2.28
2024-01-15T13:21:24.834Z,4.15
2024-01-15T13:23:57.921Z,4.97
2024-01-15T13:26:32.273Z,7.75
2024-01-15T13:29:05.988Z,4.40
2024-01-15T13:31:39.712Z,6.97
2024-01-15T13:34:12.971Z,3.30
2024-01-15T13:36:46.272Z,3.40
2024-01-15T13:39:21.277Z,4.40
2024-01-15T13:41:55.727Z,1.98
2024-01-15T13:44:28.823Z,3.08
2024-01-15T13:47:03.958Z,3.60
2024-01-15T13:49:37.111Z,5.65
2024-01-15T13:52:10.256Z,7.53
2024-01-15T13:54:49.335Z,4.15
2024-01-15T13:57:24.834Z,3.80
2024-01-15T13:59:57.598Z,4.55
2024-01-15T14:02:30.577Z,2.20
2024-01-15T14:05:04.225Z,3.22
2024-01-15T14:07:37.201Z,4.78
2024-01-15T14:10:10.441Z,4.63
2024-01-15T14:12:45.568Z,4.05
2024-01-15T14:15:20.345Z,6.40
2024-01-15T14:17:53.774Z,6.75
2024-01-15T14:20:27.059Z,2.85
2024-01-15T14:22:59.771Z,3.65
2024-01-15T14:25:32.645Z,4.57
2024-01-15T14:28:07.991Z,7.68
2024-01-15T14:30:41.210Z,2.75
2024-01-15T14:33:14.219Z,8.77
2024-01-15T14:35:47.364Z,4.35
2024-01-15T14:38:20.153Z,3.20
2024-01-15T14:40:53.015Z,4.90
2024-01-15T14:43:27.276Z,7.57
2024-01-15T14:46:00.627Z,2.83
2024-01-15T14:48:33.855Z,3.40
2024-01-15T14:51:07.324Z,5.00
2024-01-15T14:53:40.346Z,4.28
2024-01-15T14:56:16.740Z,7.85
2024-01-15T14:58:52.549Z,10.05
2024-01-15T15:01:26.494Z,9.05
2024-01-15T15:03:59.447Z,7.30
2024-01-15T15:06:33.028Z,10.43
2024-01-15T15:09:10.802Z,5.80
2024-01-15T15:11:44.061Z,8.77
2024-01-15T15:14:18.361Z,6.28
2024-01-15T15:16:51.090Z,7.03
2024-01-15T15:19:24.038Z,7.60
2024-01-15T15:21:56.907Z,5.25
2024-01-15T15:24:32.063Z,7.78
2024-01-15T15:27:06.581Z,6.72
2024-01-15T15:29:42.109Z,4.25
2024-01-15T15:32:17.302Z,7.20
2024-01-15T15:34:50.324Z,5.22
2024-01-15T15:37:23.311Z,4.70
2024-01-15T15:39:57.348Z,3.58
2024-01-15T15:42:30.317Z,5.28
2024-01-15T15:45:04.987Z,6.18
2024-01-15T15:47:38.128Z,6.25
2024-01-15T15:50:11.235Z,7.22
2024-01-15T15:52:44.473Z,7.20
2024-01-15T15:55:17.901Z,7.78
2024-01-15T15:57:50.928Z,8.80
2024-01-15T16:00:25.297Z,14.30
2024-01-15T16:02:58.454Z,6.95
2024-01-15T16:05:37.883Z,8.05
2024-01-15T16:08:18.317Z,10.48
2024-01-15T16:10:53.369Z,11.73
2024-01-15T16:13:26.938Z,12.15
2024-01-15T16:23:09.302Z,13.43
2024-01-15T16:23:22.781Z,11.77
2024-01-15T16:23:38.235Z,7.93
2024-01-15T16:24:50.421Z,9.32
2024-01-15T16:27:25.620Z,6.22
2024-01-15T16:29:58.530Z,8.27
2024-01-15T16:32:33.033Z,8.13
2024-01-15T16:35:07.046Z,10.48
2024-01-15T16:37:39.901Z,8.40
2024-01-15T16:40:13.913Z,9.52
2024-01-15T16:42:48.288Z,14.70
2024-01-15T16:45:21.021Z,11.32
2024-01-15T16:47:55.452Z,13.27
2024-01-15T16:50:28.386Z,14.27
2024-01-15T16:53:02.231Z,11.38
2024-01-15T16:55:35.677Z,10.68
2024-01-15T16:58:08.825Z,10.40
2024-01-15T17:00:41.650Z,10.38
2024-01-15T17:03:16.442Z,7.85
2024-01-15T17:05:49.704Z,10.25
2024-01-15T17:08:22.734Z,11.00
2024-01-15T17:10:55.645Z,7.13
2024-01-15T17:13:28.529Z,9.10
2024-01-15T17:16:01.635Z,12.45
2024-01-15T17:18:35.063Z,7.82
2024-01-15T17:21:07.896Z,8.43
2024-01-15T17:23:41.403Z,8.83
2024-01-15T17:26:14.750Z,8.95
2024-01-15T17:28:47.556Z,14.57
2024-01-15T17:31:21.291Z,10.63
2024-01-15T17:33:57.801Z,11.77
2024-01-15T17:36:32.521Z,13.07
2024-01-15T17:39:07.550Z,11.32
2024-01-15T17:41:42.807Z,10.23
2024-01-15T17:44:15.659Z,9.40
2024-01-15T17:46:50.636Z,16.40
2024-01-15T17:49:25.270Z,12.30
2024-01-15T17:51:58.678Z,16.77
2024-01-15T17:54:32.162Z,16.45
2024-01-15T17:57:05.561Z,22.73
2024-01-15T17:59:38.353Z,15.13
2024-01-15T18:02:11.826Z,16.50
2024-01-15T18:04:46.038Z,18.45
2024-01-15T18:07:21.394Z,18.92
2024-01-15T18:09:54.543Z,17.63
2024-01-15T18:12:28.072Z,20.95
2024-01-15T18:15:02.435Z,13.25
2024-01-15T18:17:36.380Z,12.77
2024-01-15T18:20:15.007Z,14.90
2024-01-15T18:22:51.154Z,12.27
2024-01-15T18:25:24.231Z,13.35
2024-01-15T18:27:58.260Z,19.10
2024-01-15T18:30:31.191Z,15.32
2024-01-15T18:33:04.709Z,14.25
2024-01-15T18:35:39.419Z,13.63
2024-01-15T18:38:12.622Z,15.18
2024-01-15T18:40:46.010Z,12.07
2024-01-15T18:43:19.920Z,13.38
2024-01-15T18:45:52.700Z,13.50
2024-01-15T18:48:26.169Z,10.48
2024-01-15T18:51:00.984Z,8.82
2024-01-15T18:53:34.255Z,7.20
2024-01-15T18:56:08.033Z,5.80
2024-01-15T18:58:43.941Z,11.23
2024-01-15T19:01:28.342Z,10.30
2024-01-15T19:04:01.981Z,14.32
2024-01-15T19:06:36.088Z,9.00
2024-01-15T19:09:10.136Z,12.60
2024-01-15T19:11:42.972Z,6.95
2024-01-15T19:14:15.854Z,4.03
2024-01-15T19:16:49.471Z,3.60
2024-01-15T19:19:22.286Z,7.78
2024-01-15T19:21:56.401Z,5.55
2024-01-15T19:24:29.482Z,4.32
2024-01-15T19:27:02.249Z,6.78
2024-01-15T19:29:36.123Z,6.07
2024-01-15T19:32:09.064Z,8.10
2024-01-15T19:34:42.518Z,10.43
2024-01-15T19:37:16.860Z,5.60
2024-01-15T19:39:49.780Z,9.50
2024-01-15T19:42:22.489Z,4.68
2024-01-15T19:44:55.782Z,7.35
2024-01-15T19:47:30.944Z,5.20
2024-01-15T19:50:03.994Z,4.85
2024-01-15T19:52:39.489Z,6.13
2024-01-15T19:55:12.779Z,5.82
2024-01-15T19:57:46.077Z,4.57
2024-01-15T20:00:19.250Z,4.80
2024-01-15T20:02:52.230Z,3.83
2024-01-15T20:05:25.328Z,2.25
2024-01-15T20:07:59.986Z,4.65
2024-01-15T20:10:34.309Z,4.30
2024-01-15T20:13:07.148Z,7.15
2024-01-15T20:15:40.096Z,3.97
2024-01-15T20:18:13.174Z,5.38
2024-01-15T20:20:46.383Z,4.65
2024-01-15T20:23:20.582Z,3.90
2024-01-15T20:25:53.652Z,6.47
2024-01-15T20:28:26.796Z,3.78
2024-01-15T20:30:59.696Z,6.03
2024-01-15T20:33:33.129Z,4.65
2024-01-15T20:36:06.883Z,7.30
2024-01-15T20:38:41.416Z,3.08
2024-01-15T20:41:15.545Z,5.13
2024-01-15T20:43:49.157Z,5.22
2024-01-15T20:46:21.873Z,4.07
2024-01-15T20:48:54.856Z,4.18
2024-01-15T20:51:27.659Z,4.88
2024-01-15T20:54:01.840Z,5.53
2024-01-15T20:56:35.509Z,6.63
2024-01-15T20:59:08.318Z,4.10
2024-01-15T21:01:40.963Z,6.00
2024-01-15T21:04:14.004Z,4.88
2024-01-15T21:06:47.964Z,4.38
2024-01-15T21:09:22.138Z,3.55
2024-01-15T21:11:55.665Z,3.50
2024-01-15T21:14:28.884Z,3.97
2024-01-15T21:17:01.865Z,8.20
2024-01-15T21:19:34.785Z,6.85
2024-01-15T21:22:10.673Z,3.88
2024-01-15T21:24:44.828Z,8.30
2024-01-15T21:27:18.510Z,4.82
2024-01-15T21:29:51.258Z,3.70
2024-01-15T21:32:24.628Z,5.05
2024-01-15T21:34:57.527Z,6.35
2024-01-15T21:37:30.635Z,5.18
2024-01-15T21:40:08.331Z,5.03
2024-01-15T21:42:41.617Z,7.20
2024-01-15T21:45:14.761Z,9.30
2024-01-15T21:47:47.694Z,7.43
2024-01-15T21:50:20.976Z,5.23
2024-01-15T21:52:53.739Z,5.25
2024-01-15T21:55:27.989Z,6.90
2024-01-15T21:58:01.233Z,7.47
2024-01-15T22:00:34.257Z,7.50
2024-01-15T22:03:07.529Z,7.60
2024-01-15T22:05:40.462Z,5.18
2024-01-15T22:08:13.343Z,5.32
2024-01-15T22:10:47.492Z,7.00
2024-01-15T22:13:21.123Z,5.40
2024-01-15T22:15:53.877Z,4.95
2024-01-15T22:18:27.076Z,4.68
2024-01-15T22:21:02.657Z,4.00
2024-01-15T22:23:35.618Z,5.43
2024-01-15T22:26:11.025Z,6.17
2024-01-15T22:28:44.058Z,5.65
2024-01-15T22:31:16.901Z,4.27
2024-01-15T22:33:50.169Z,4.80
2024-01-15T22:36:23.184Z,5.63
2024-01-15T22:38:56.085Z,4.93
2024-01-15T22:41:30.864Z,5.73
2024-01-15T22:44:05.028Z,5.70
2024-01-15T22:46:39.099Z,7.00
2024-01-15T22:49:12.145Z,5.13
2024-01-15T22:51:44.980Z,16.87
2024-01-15T22:54:17.939Z,6.17
2024-01-15T22:56:52.069Z,11.67
2024-01-15T22:59:24.969Z,9.63
2024-01-15T23:01:57.879Z,8.27
2024-01-15T23:04:30.744Z,5.80
2024-01-15T23:07:03.869Z,6.83
2024-01-15T23:09:36.924Z,9.40
2024-01-15T23:12:11.643Z,6.45
2024-01-15T23:14:44.514Z,5.53
2024-01-15T23:17:19.072Z,4.53
2024-01-15T23:19:51.809Z,4.40
2024-01-15T23:22:24.570Z,4.65
2024-01-15T23:24:57.711Z,4.80
2024-01-15T23:27:31.921Z,12.13
2024-01-15T23:30:05.930Z,5.17
2024-01-15T23:32:39.410Z,3.30
2024-01-15T23:35:12.481Z,9.97
2024-01-15T23:37:45.270Z,9.83
2024-01-15T23:40:18.265Z,6.30
2024-01-15T23:42:52.401Z,3.75
2024-01-15T23:45:25.149Z,5.05
2024-01-15T23:47:58.069Z,5.20
2024-01-15T23:50:31.738Z,4.83
2024-01-15T23:53:04.791Z,6.07
2024-01-15T23:55:37.914Z,5.83
2024-01-15T23:58:12.212Z,6.30
